sensor_id;sensor_type;location;lat;lon;timestamp;P1;durP1;ratioP1;P2;durP2;ratioP2
70216;SDS011;65567;55.684;37.570;2023-05-07T00:00:47;8.95;;;3.35;;
70216;SDS011;65567;55.684;37.570;2023-05-07T00:03:13;5.07;;;3.47;;
70216;SDS011;65567;55.684;37.570;2023-05-07T00:05:39;11.27;;;3.60;;
70216;SDS011;65567;55.684;37.570;2023-05-07T00:08:06;5.97;;;3.67;;
70216;SDS011;65567;55.684;37.570;2023-05-07T00:10:35;5.13;;;3.17;;
70216;SDS011;65567;55.684;37.570;2023-05-07T00:13:01;7.45;;;3.95;;
70216;SDS011;65567;55.684;37.570;2023-05-07T00:15:30;5.18;;;3.13;;
70216;SDS011;65567;55.684;37.570;2023-05-07T00:17:56;6.90;;;3.92;;
70216;SDS011;65567;55.684;37.570;2023-05-07T00:20:24;8.40;;;3.70;;
70216;SDS011;65567;55.684;37.570;2023-05-07T00:22:50;6.57;;;3.25;;
70216;SDS011;65567;55.684;37.570;2023-05-07T00:25:19;5.93;;;3.40;;
70216;SDS011;65567;55.684;37.570;2023-05-07T00:27:45;5.25;;;3.50;;
70216;SDS011;65567;55.684;37.570;2023-05-07T00:30:12;9.93;;;3.70;;
70216;SDS011;65567;55.684;37.570;2023-05-07T00:32:38;5.15;;;3.10;;
70216;SDS011;65567;55.684;37.570;2023-05-07T00:35:04;6.70;;;3.50;;
70216;SDS011;65567;55.684;37.570;2023-05-07T00:37:31;5.57;;;3.63;;
70216;SDS011;65567;55.684;37.570;2023-05-07T00:39:57;5.03;;;3.38;;
70216;SDS011;65567;55.684;37.570;2023-05-07T00:42:23;5.28;;;3.05;;
70216;SDS011;65567;55.684;37.570;2023-05-07T00:44:49;6.93;;;3.38;;
70216;SDS011;65567;55.684;37.570;2023-05-07T00:47:15;8.07;;;3.15;;
70216;SDS011;65567;55.684;37.570;2023-05-07T00:49:42;5.60;;;3.42;;
70216;SDS011;65567;55.684;37.570;2023-05-07T00:52:11;5.65;;;3.70;;
70216;SDS011;65567;55.684;37.570;2023-05-07T00:54:40;7.63;;;3.33;;
70216;SDS011;65567;55.684;37.570;2023-05-07T00:57:07;5.68;;;3.42;;
70216;SDS011;65567;55.684;37.570;2023-05-07T00:59:36;7.22;;;3.28;;
70216;SDS011;65567;55.684;37.570;2023-05-07T01:02:02;5.75;;;3.83;;
70216;SDS011;65567;55.684;37.570;2023-05-07T01:04:29;5.50;;;3.10;;
70216;SDS011;65567;55.684;37.570;2023-05-07T01:06:55;6.47;;;3.10;;
70216;SDS011;65567;55.684;37.570;2023-05-07T01:09:26;5.88;;;3.22;;
70216;SDS011;65567;55.684;37.570;2023-05-07T01:11:53;5.28;;;3.38;;
70216;SDS011;65567;55.684;37.570;2023-05-07T01:14:22;5.15;;;3.60;;
70216;SDS011;65567;55.684;37.570;2023-05-07T01:16:49;6.38;;;3.53;;
70216;SDS011;65567;55.684;37.570;2023-05-07T01:19:17;5.50;;;3.28;;
70216;SDS011;65567;55.684;37.570;2023-05-07T01:21:46;4.10;;;2.90;;
70216;SDS011;65567;55.684;37.570;2023-05-07T01:24:13;7.13;;;2.97;;
70216;SDS011;65567;55.684;37.570;2023-05-07T01:26:40;5.63;;;3.30;;
70216;SDS011;65567;55.684;37.570;2023-05-07T01:29:08;5.53;;;3.50;;
70216;SDS011;65567;55.684;37.570;2023-05-07T01:31:34;6.63;;;3.15;;
70216;SDS011;65567;55.684;37.570;2023-05-07T01:34:02;12.50;;;4.07;;
70216;SDS011;65567;55.684;37.570;2023-05-07T01:36:30;4.85;;;3.30;;
70216;SDS011;65567;55.684;37.570;2023-05-07T01:38:57;6.22;;;3.42;;
70216;SDS011;65567;55.684;37.570;2023-05-07T01:41:25;5.00;;;3.45;;
70216;SDS011;65567;55.684;37.570;2023-05-07T01:43:51;6.40;;;3.33;;
70216;SDS011;65567;55.684;37.570;2023-05-07T01:46:19;5.50;;;3.20;;
70216;SDS011;65567;55.684;37.570;2023-05-07T01:48:45;5.00;;;3.38;;
70216;SDS011;65567;55.684;37.570;2023-05-07T01:51:12;6.57;;;3.33;;
70216;SDS011;65567;55.684;37.570;2023-05-07T01:53:39;6.28;;;3.80;;
70216;SDS011;65567;55.684;37.570;2023-05-07T01:56:05;5.50;;;3.38;;
70216;SDS011;65567;55.684;37.570;2023-05-07T01:58:32;7.03;;;3.70;;
70216;SDS011;65567;55.684;37.570;2023-05-07T02:00:58;6.82;;;3.58;;
70216;SDS011;65567;55.684;37.570;2023-05-07T02:03:24;6.07;;;3.70;;
70216;SDS011;65567;55.684;37.570;2023-05-07T02:05:50;8.38;;;3.67;;
70216;SDS011;65567;55.684;37.570;2023-05-07T02:08:16;5.05;;;3.30;;
70216;SDS011;65567;55.684;37.570;2023-05-07T02:10:42;7.53;;;3.33;;
70216;SDS011;65567;55.684;37.570;2023-05-07T02:13:08;7.60;;;3.40;;
70216;SDS011;65567;55.684;37.570;2023-05-07T02:18:40;4.80;;;3.22;;
70216;SDS011;65567;55.684;37.570;2023-05-07T02:21:06;5.28;;;3.30;;
70216;SDS011;65567;55.684;37.570;2023-05-07T02:23:32;5.38;;;3.00;;
70216;SDS011;65567;55.684;37.570;2023-05-07T02:25:58;8.70;;;3.55;;
70216;SDS011;65567;55.684;37.570;2023-05-07T02:28:24;8.02;;;3.20;;
70216;SDS011;65567;55.684;37.570;2023-05-07T02:30:50;5.68;;;3.35;;
70216;SDS011;65567;55.684;37.570;2023-05-07T02:33:16;5.25;;;3.38;;
70216;SDS011;65567;55.684;37.570;2023-05-07T02:35:42;7.25;;;3.70;;
70216;SDS011;65567;55.684;37.570;2023-05-07T02:38:08;6.75;;;3.60;;
70216;SDS011;65567;55.684;37.570;2023-05-07T02:40:36;5.88;;;3.70;;
70216;SDS011;65567;55.684;37.570;2023-05-07T02:43:05;6.13;;;3.45;;
70216;SDS011;65567;55.684;37.570;2023-05-07T02:45:31;4.47;;;3.53;;
70216;SDS011;65567;55.684;37.570;2023-05-07T02:47:58;6.63;;;3.28;;
70216;SDS011;65567;55.684;37.570;2023-05-07T02:50:24;6.90;;;3.78;;
70216;SDS011;65567;55.684;37.570;2023-05-07T02:52:51;5.95;;;3.90;;
70216;SDS011;65567;55.684;37.570;2023-05-07T02:55:17;7.50;;;5.05;;
70216;SDS011;65567;55.684;37.570;2023-05-07T02:57:43;6.32;;;4.35;;
70216;SDS011;65567;55.684;37.570;2023-05-07T03:02:40;9.68;;;4.25;;
70216;SDS011;65567;55.684;37.570;2023-05-07T03:05:06;6.22;;;3.92;;
70216;SDS011;65567;55.684;37.570;2023-05-07T03:07:33;7.22;;;4.10;;
70216;SDS011;65567;55.684;37.570;2023-05-07T03:10:00;6.90;;;3.78;;
70216;SDS011;65567;55.684;37.570;2023-05-07T03:12:26;5.55;;;3.75;;
70216;SDS011;65567;55.684;37.570;2023-05-07T03:14:52;5.88;;;3.83;;
70216;SDS011;65567;55.684;37.570;2023-05-07T03:17:18;4.18;;;3.22;;
70216;SDS011;65567;55.684;37.570;2023-05-07T03:19:44;5.28;;;3.13;;
70216;SDS011;65567;55.684;37.570;2023-05-07T03:22:10;3.85;;;2.55;;
70216;SDS011;65567;55.684;37.570;2023-05-07T03:24:36;4.88;;;2.60;;
70216;SDS011;65567;55.684;37.570;2023-05-07T03:27:02;4.88;;;2.67;;
70216;SDS011;65567;55.684;37.570;2023-05-07T03:29:28;6.28;;;2.55;;
70216;SDS011;65567;55.684;37.570;2023-05-07T03:31:54;3.97;;;2.75;;
70216;SDS011;65567;55.684;37.570;2023-05-07T03:34:20;5.35;;;2.50;;
70216;SDS011;65567;55.684;37.570;2023-05-07T03:36:50;3.88;;;2.40;;
70216;SDS011;65567;55.684;37.570;2023-05-07T03:39:16;3.80;;;2.35;;
70216;SDS011;65567;55.684;37.570;2023-05-07T03:41:42;6.05;;;2.60;;
70216;SDS011;65567;55.684;37.570;2023-05-07T03:44:08;4.78;;;2.53;;
70216;SDS011;65567;55.684;37.570;2023-05-07T03:46:34;4.82;;;2.95;;
70216;SDS011;65567;55.684;37.570;2023-05-07T03:49:00;3.97;;;2.22;;
70216;SDS011;65567;55.684;37.570;2023-05-07T03:51:26;6.20;;;2.50;;
70216;SDS011;65567;55.684;37.570;2023-05-07T03:53:52;2.97;;;2.45;;
70216;SDS011;65567;55.684;37.570;2023-05-07T03:56:18;5.55;;;2.67;;
70216;SDS011;65567;55.684;37.570;2023-05-07T03:58:44;4.93;;;2.80;;
70216;SDS011;65567;55.684;37.570;2023-05-07T04:01:10;5.50;;;2.95;;
70216;SDS011;65567;55.684;37.570;2023-05-07T04:03:37;4.47;;;2.72;;
70216;SDS011;65567;55.684;37.570;2023-05-07T04:06:03;4.35;;;2.80;;
70216;SDS011;65567;55.684;37.570;2023-05-07T04:08:29;3.65;;;2.60;;
70216;SDS011;65567;55.684;37.570;2023-05-07T04:10:56;3.95;;;2.65;;
70216;SDS011;65567;55.684;37.570;2023-05-07T04:13:22;4.03;;;2.33;;
70216;SDS011;65567;55.684;37.570;2023-05-07T04:15:48;5.05;;;2.42;;
70216;SDS011;65567;55.684;37.570;2023-05-07T04:18:15;3.63;;;2.35;;
70216;SDS011;65567;55.684;37.570;2023-05-07T04:20:41;5.20;;;2.70;;
70216;SDS011;65567;55.684;37.570;2023-05-07T04:23:07;4.75;;;2.70;;
70216;SDS011;65567;55.684;37.570;2023-05-07T04:25:33;3.22;;;2.30;;
70216;SDS011;65567;55.684;37.570;2023-05-07T04:27:59;7.25;;;2.50;;
70216;SDS011;65567;55.684;37.570;2023-05-07T04:30:25;5.13;;;2.53;;
70216;SDS011;65567;55.684;37.570;2023-05-07T04:32:51;3.47;;;2.42;;
70216;SDS011;65567;55.684;37.570;2023-05-07T04:35:18;3.30;;;2.35;;
70216;SDS011;65567;55.684;37.570;2023-05-07T04:37:44;4.82;;;2.38;;
70216;SDS011;65567;55.684;37.570;2023-05-07T04:40:10;3.28;;;2.20;;
70216;SDS011;65567;55.684;37.570;2023-05-07T04:42:36;3.42;;;2.22;;
70216;SDS011;65567;55.684;37.570;2023-05-07T04:45:02;4.05;;;2.30;;
70216;SDS011;65567;55.684;37.570;2023-05-07T04:47:30;4.40;;;2.20;;
70216;SDS011;65567;55.684;37.570;2023-05-07T04:49:57;4.75;;;1.85;;
70216;SDS011;65567;55.684;37.570;2023-05-07T04:52:23;4.43;;;1.90;;
70216;SDS011;65567;55.684;37.570;2023-05-07T04:54:49;3.20;;;1.67;;
70216;SDS011;65567;55.684;37.570;2023-05-07T04:57:15;2.67;;;1.85;;
70216;SDS011;65567;55.684;37.570;2023-05-07T04:59:43;2.83;;;1.95;;
70216;SDS011;65567;55.684;37.570;2023-05-07T05:02:12;2.92;;;1.83;;
70216;SDS011;65567;55.684;37.570;2023-05-07T05:04:38;2.97;;;2.03;;
70216;SDS011;65567;55.684;37.570;2023-05-07T05:07:04;4.35;;;1.95;;
70216;SDS011;65567;55.684;37.570;2023-05-07T05:09:30;3.95;;;1.92;;
70216;SDS011;65567;55.684;37.570;2023-05-07T05:11:56;4.25;;;1.75;;
70216;SDS011;65567;55.684;37.570;2023-05-07T05:14:21;4.82;;;2.20;;
70216;SDS011;65567;55.684;37.570;2023-05-07T05:16:47;3.42;;;1.90;;
70216;SDS011;65567;55.684;37.570;2023-05-07T05:19:13;2.72;;;1.70;;
70216;SDS011;65567;55.684;37.570;2023-05-07T05:21:40;2.83;;;1.75;;
70216;SDS011;65567;55.684;37.570;2023-05-07T05:24:05;3.50;;;1.67;;
70216;SDS011;65567;55.684;37.570;2023-05-07T05:26:31;2.45;;;1.80;;
70216;SDS011;65567;55.684;37.570;2023-05-07T05:28:57;5.07;;;1.80;;
70216;SDS011;65567;55.684;37.570;2023-05-07T05:31:23;2.88;;;1.90;;
70216;SDS011;65567;55.684;37.570;2023-05-07T05:33:49;3.13;;;1.80;;
70216;SDS011;65567;55.684;37.570;2023-05-07T05:36:18;4.28;;;1.73;;
70216;SDS011;65567;55.684;37.570;2023-05-07T05:38:47;3.47;;;1.98;;
70216;SDS011;65567;55.684;37.570;2023-05-07T05:41:13;3.88;;;1.92;;
70216;SDS011;65567;55.684;37.570;2023-05-07T05:43:39;2.80;;;1.48;;
70216;SDS011;65567;55.684;37.570;2023-05-07T05:46:05;4.82;;;1.60;;
70216;SDS011;65567;55.684;37.570;2023-05-07T05:48:31;5.28;;;1.77;;
70216;SDS011;65567;55.684;37.570;2023-05-07T05:50:57;2.65;;;1.63;;
70216;SDS011;65567;55.684;37.570;2023-05-07T05:53:23;2.67;;;1.70;;
70216;SDS011;65567;55.684;37.570;2023-05-07T05:55:50;2.20;;;1.63;;
70216;SDS011;65567;55.684;37.570;2023-05-07T05:58:16;3.42;;;1.70;;
70216;SDS011;65567;55.684;37.570;2023-05-07T06:00:42;4.68;;;1.80;;
70216;SDS011;65567;55.684;37.570;2023-05-07T06:03:09;1.98;;;1.50;;
70216;SDS011;65567;55.684;37.570;2023-05-07T06:05:35;2.53;;;1.48;;
70216;SDS011;65567;55.684;37.570;2023-05-07T06:08:01;3.22;;;1.50;;
70216;SDS011;65567;55.684;37.570;2023-05-07T06:10:27;2.08;;;1.33;;
70216;SDS011;65567;55.684;37.570;2023-05-07T06:12:53;3.67;;;1.65;;
70216;SDS011;65567;55.684;37.570;2023-05-07T06:15:19;3.72;;;1.42;;
70216;SDS011;65567;55.684;37.570;2023-05-07T06:17:45;2.42;;;1.40;;
70216;SDS011;65567;55.684;37.570;2023-05-07T06:20:11;1.80;;;1.30;;
70216;SDS011;65567;55.684;37.570;2023-05-07T06:22:40;8.23;;;6.40;;
70216;SDS011;65567;55.684;37.570;2023-05-07T06:25:06;3.58;;;1.75;;
70216;SDS011;65567;55.684;37.570;2023-05-07T06:27:32;4.25;;;1.48;;
70216;SDS011;65567;55.684;37.570;2023-05-07T06:29:58;3.28;;;1.20;;
70216;SDS011;65567;55.684;37.570;2023-05-07T06:32:24;5.55;;;1.90;;
70216;SDS011;65567;55.684;37.570;2023-05-07T06:34:50;2.30;;;1.42;;
70216;SDS011;65567;55.684;37.570;2023-05-07T06:37:16;4.45;;;1.75;;
70216;SDS011;65567;55.684;37.570;2023-05-07T06:39:42;2.85;;;1.58;;
70216;SDS011;65567;55.684;37.570;2023-05-07T06:42:08;2.10;;;1.42;;
70216;SDS011;65567;55.684;37.570;2023-05-07T06:44:34;4.57;;;1.45;;
70216;SDS011;65567;55.684;37.570;2023-05-07T06:47:00;2.38;;;1.25;;
70216;SDS011;65567;55.684;37.570;2023-05-07T06:49:26;2.35;;;1.35;;
70216;SDS011;65567;55.684;37.570;2023-05-07T06:51:52;2.58;;;1.35;;
70216;SDS011;65567;55.684;37.570;2023-05-07T06:54:17;2.90;;;1.45;;
70216;SDS011;65567;55.684;37.570;2023-05-07T06:56:44;2.75;;;1.70;;
70216;SDS011;65567;55.684;37.570;2023-05-07T06:59:10;2.45;;;1.40;;
70216;SDS011;65567;55.684;37.570;2023-05-07T07:01:36;2.70;;;1.40;;
70216;SDS011;65567;55.684;37.570;2023-05-07T07:04:02;1.42;;;1.10;;
70216;SDS011;65567;55.684;37.570;2023-05-07T07:06:28;5.03;;;1.67;;
70216;SDS011;65567;55.684;37.570;2023-05-07T07:08:57;2.70;;;1.30;;
70216;SDS011;65567;55.684;37.570;2023-05-07T07:11:23;2.78;;;1.10;;
70216;SDS011;65567;55.684;37.570;2023-05-07T07:13:49;1.98;;;1.10;;
70216;SDS011;65567;55.684;37.570;2023-05-07T07:16:16;2.15;;;1.00;;
70216;SDS011;65567;55.684;37.570;2023-05-07T07:18:42;4.80;;;1.38;;
70216;SDS011;65567;55.684;37.570;2023-05-07T07:21:08;3.72;;;1.05;;
70216;SDS011;65567;55.684;37.570;2023-05-07T07:23:34;2.15;;;1.08;;
70216;SDS011;65567;55.684;37.570;2023-05-07T07:26:01;2.03;;;1.00;;
70216;SDS011;65567;55.684;37.570;2023-05-07T07:28:27;1.88;;;1.00;;
70216;SDS011;65567;55.684;37.570;2023-05-07T07:30:53;3.40;;;1.20;;
70216;SDS011;65567;55.684;37.570;2023-05-07T07:33:19;4.07;;;1.30;;
70216;SDS011;65567;55.684;37.570;2023-05-07T07:35:45;1.80;;;1.10;;
70216;SDS011;65567;55.684;37.570;2023-05-07T07:38:10;3.72;;;1.05;;
70216;SDS011;65567;55.684;37.570;2023-05-07T07:40:36;3.95;;;1.33;;
70216;SDS011;65567;55.684;37.570;2023-05-07T07:43:02;2.25;;;1.20;;
70216;SDS011;65567;55.684;37.570;2023-05-07T07:45:28;3.08;;;1.13;;
70216;SDS011;65567;55.684;37.570;2023-05-07T07:47:54;3.05;;;1.50;;
70216;SDS011;65567;55.684;37.570;2023-05-07T07:50:20;3.50;;;1.30;;
70216;SDS011;65567;55.684;37.570;2023-05-07T07:52:47;2.72;;;1.15;;
70216;SDS011;65567;55.684;37.570;2023-05-07T07:55:14;3.15;;;1.17;;
70216;SDS011;65567;55.684;37.570;2023-05-07T07:57:43;3.58;;;1.30;;
70216;SDS011;65567;55.684;37.570;2023-05-07T08:00:09;5.15;;;1.27;;
70216;SDS011;65567;55.684;37.570;2023-05-07T08:02:35;2.03;;;1.00;;
70216;SDS011;65567;55.684;37.570;2023-05-07T08:05:01;2.00;;;1.05;;
70216;SDS011;65567;55.684;37.570;2023-05-07T08:07:27;6.53;;;1.83;;
70216;SDS011;65567;55.684;37.570;2023-05-07T08:09:53;3.80;;;0.90;;
70216;SDS011;65567;55.684;37.570;2023-05-07T08:12:19;2.38;;;1.10;;
70216;SDS011;65567;55.684;37.570;2023-05-07T08:14:45;4.45;;;1.17;;
70216;SDS011;65567;55.684;37.570;2023-05-07T08:17:11;2.60;;;1.30;;
70216;SDS011;65567;55.684;37.570;2023-05-07T08:19:38;4.20;;;1.27;;
70216;SDS011;65567;55.684;37.570;2023-05-07T08:22:04;4.25;;;1.35;;
70216;SDS011;65567;55.684;37.570;2023-05-07T08:24:30;3.75;;;1.38;;
70216;SDS011;65567;55.684;37.570;2023-05-07T08:26:56;2.80;;;1.48;;
70216;SDS011;65567;55.684;37.570;2023-05-07T08:29:22;2.97;;;0.93;;
70216;SDS011;65567;55.684;37.570;2023-05-07T08:31:48;2.20;;;1.20;;
70216;SDS011;65567;55.684;37.570;2023-05-07T08:34:14;2.13;;;1.10;;
70216;SDS011;65567;55.684;37.570;2023-05-07T08:36:40;3.55;;;1.00;;
70216;SDS011;65567;55.684;37.570;2023-05-07T08:39:07;6.28;;;0.90;;
70216;SDS011;65567;55.684;37.570;2023-05-07T08:41:33;2.53;;;1.00;;
70216;SDS011;65567;55.684;37.570;2023-05-07T08:44:00;3.92;;;1.30;;
70216;SDS011;65567;55.684;37.570;2023-05-07T08:46:31;3.63;;;1.10;;
70216;SDS011;65567;55.684;37.570;2023-05-07T08:48:57;3.08;;;1.15;;
70216;SDS011;65567;55.684;37.570;2023-05-07T08:51:23;1.85;;;0.93;;
70216;SDS011;65567;55.684;37.570;2023-05-07T08:53:49;2.67;;;0.90;;
70216;SDS011;65567;55.684;37.570;2023-05-07T08:56:16;1.30;;;0.82;;
70216;SDS011;65567;55.684;37.570;2023-05-07T08:58:43;6.00;;;1.55;;
70216;SDS011;65567;55.684;37.570;2023-05-07T09:01:13;2.88;;;1.10;;
70216;SDS011;65567;55.684;37.570;2023-05-07T09:06:06;2.97;;;0.80;;
70216;SDS011;65567;55.684;37.570;2023-05-07T09:08:33;2.33;;;1.30;;
70216;SDS011;65567;55.684;37.570;2023-05-07T09:11:01;3.38;;;1.40;;
70216;SDS011;65567;55.684;37.570;2023-05-07T09:13:27;3.90;;;1.35;;
70216;SDS011;65567;55.684;37.570;2023-05-07T09:15:53;2.45;;;0.90;;
70216;SDS011;65567;55.684;37.570;2023-05-07T09:18:20;1.52;;;0.98;;
70216;SDS011;65567;55.684;37.570;2023-05-07T09:20:46;6.82;;;0.95;;
70216;SDS011;65567;55.684;37.570;2023-05-07T09:23:12;1.27;;;0.85;;
70216;SDS011;65567;55.684;37.570;2023-05-07T09:25:37;2.10;;;1.00;;
70216;SDS011;65567;55.684;37.570;2023-05-07T09:28:04;3.53;;;1.10;;
70216;SDS011;65567;55.684;37.570;2023-05-07T09:30:35;3.22;;;1.08;;
70216;SDS011;65567;55.684;37.570;2023-05-07T09:33:01;3.95;;;1.30;;
70216;SDS011;65567;55.684;37.570;2023-05-07T09:35:29;4.03;;;1.20;;
70216;SDS011;65567;55.684;37.570;2023-05-07T09:37:56;10.48;;;1.92;;
70216;SDS011;65567;55.684;37.570;2023-05-07T09:40:24;2.90;;;1.52;;
70216;SDS011;65567;55.684;37.570;2023-05-07T09:42:52;4.07;;;1.00;;
70216;SDS011;65567;55.684;37.570;2023-05-07T09:45:22;2.90;;;1.52;;
70216;SDS011;65567;55.684;37.570;2023-05-07T09:47:49;3.75;;;1.40;;
70216;SDS011;65567;55.684;37.570;2023-05-07T09:50:18;2.63;;;0.90;;
70216;SDS011;65567;55.684;37.570;2023-05-07T09:52:46;2.30;;;1.10;;
70216;SDS011;65567;55.684;37.570;2023-05-07T09:55:13;4.13;;;1.20;;
70216;SDS011;65567;55.684;37.570;2023-05-07T09:57:40;1.35;;;0.88;;
70216;SDS011;65567;55.684;37.570;2023-05-07T10:00:08;2.63;;;0.93;;
70216;SDS011;65567;55.684;37.570;2023-05-07T10:02:36;2.10;;;0.90;;
70216;SDS011;65567;55.684;37.570;2023-05-07T10:05:02;1.48;;;0.90;;
70216;SDS011;65567;55.684;37.570;2023-05-07T10:07:29;2.72;;;0.90;;
70216;SDS011;65567;55.684;37.570;2023-05-07T10:09:55;2.55;;;1.00;;
70216;SDS011;65567;55.684;37.570;2023-05-07T10:12:24;3.45;;;1.23;;
70216;SDS011;65567;55.684;37.570;2023-05-07T10:14:51;3.92;;;1.05;;
70216;SDS011;65567;55.684;37.570;2023-05-07T10:17:18;3.83;;;1.05;;
70216;SDS011;65567;55.684;37.570;2023-05-07T10:19:45;2.80;;;0.93;;
70216;SDS011;65567;55.684;37.570;2023-05-07T10:22:12;5.50;;;1.08;;
70216;SDS011;65567;55.684;37.570;2023-05-07T10:24:41;2.45;;;0.85;;
70216;SDS011;65567;55.684;37.570;2023-05-07T10:27:10;2.35;;;1.10;;
70216;SDS011;65567;55.684;37.570;2023-05-07T10:34:47;1.90;;;0.90;;
70216;SDS011;65567;55.684;37.570;2023-05-07T10:37:16;2.72;;;1.15;;
70216;SDS011;65567;55.684;37.570;2023-05-07T10:39:42;1.38;;;0.95;;
70216;SDS011;65567;55.684;37.570;2023-05-07T10:42:12;2.92;;;1.27;;
70216;SDS011;65567;55.684;37.570;2023-05-07T10:44:39;2.55;;;1.10;;
70216;SDS011;65567;55.684;37.570;2023-05-07T10:52:19;1.60;;;0.88;;
70216;SDS011;65567;55.684;37.570;2023-05-07T10:57:44;2.65;;;1.38;;
70216;SDS011;65567;55.684;37.570;2023-05-07T11:00:41;1.98;;;0.93;;
70216;SDS011;65567;55.684;37.570;2023-05-07T11:05:25;4.13;;;1.40;;
70216;SDS011;65567;55.684;37.570;2023-05-07T11:07:56;7.10;;;1.70;;
70216;SDS011;65567;55.684;37.570;2023-05-07T11:10:59;2.97;;;1.10;;
70216;SDS011;65567;55.684;37.570;2023-05-07T11:14:04;3.65;;;1.05;;
70216;SDS011;65567;55.684;37.570;2023-05-07T11:16:23;2.13;;;1.10;;
70216;SDS011;65567;55.684;37.570;2023-05-07T11:18:54;3.55;;;1.10;;
70216;SDS011;65567;55.684;37.570;2023-05-07T11:21:37;1.55;;;1.00;;
70216;SDS011;65567;55.684;37.570;2023-05-07T11:24:05;2.25;;;1.05;;
70216;SDS011;65567;55.684;37.570;2023-05-07T11:26:43;2.60;;;0.90;;
70216;SDS011;65567;55.684;37.570;2023-05-07T11:29:19;2.30;;;1.23;;
70216;SDS011;65567;55.684;37.570;2023-05-07T11:31:50;3.17;;;1.13;;
70216;SDS011;65567;55.684;37.570;2023-05-07T11:34:23;2.78;;;1.38;;
70216;SDS011;65567;55.684;37.570;2023-05-07T11:36:51;5.75;;;1.33;;
70216;SDS011;65567;55.684;37.570;2023-05-07T11:41:51;6.00;;;1.30;;
70216;SDS011;65567;55.684;37.570;2023-05-07T11:44:17;2.33;;;1.20;;
70216;SDS011;65567;55.684;37.570;2023-05-07T11:46:44;4.35;;;1.20;;
70216;SDS011;65567;55.684;37.570;2023-05-07T11:49:13;4.18;;;1.25;;
70216;SDS011;65567;55.684;37.570;2023-05-07T11:51:39;3.28;;;1.50;;
70216;SDS011;65567;55.684;37.570;2023-05-07T11:54:08;5.00;;;1.35;;
70216;SDS011;65567;55.684;37.570;2023-05-07T11:56:36;2.22;;;1.40;;
70216;SDS011;65567;55.684;37.570;2023-05-07T11:59:04;2.40;;;1.17;;
70216;SDS011;65567;55.684;37.570;2023-05-07T12:01:34;3.40;;;1.13;;
70216;SDS011;65567;55.684;37.570;2023-05-07T12:04:02;4.03;;;1.10;;
70216;SDS011;65567;55.684;37.570;2023-05-07T12:06:29;2.25;;;1.30;;
70216;SDS011;65567;55.684;37.570;2023-05-07T12:08:56;3.65;;;1.13;;
70216;SDS011;65567;55.684;37.570;2023-05-07T12:11:22;3.60;;;1.50;;
70216;SDS011;65567;55.684;37.570;2023-05-07T12:13:51;3.67;;;1.10;;
70216;SDS011;65567;55.684;37.570;2023-05-07T12:16:17;4.63;;;0.82;;
70216;SDS011;65567;55.684;37.570;2023-05-07T12:18:44;2.53;;;1.50;;
70216;SDS011;65567;55.684;37.570;2023-05-07T12:21:10;1.88;;;1.10;;
70216;SDS011;65567;55.684;37.570;2023-05-07T12:23:37;4.80;;;1.50;;
70216;SDS011;65567;55.684;37.570;2023-05-07T12:26:03;2.38;;;1.10;;
70216;SDS011;65567;55.684;37.570;2023-05-07T12:28:30;3.55;;;1.27;;
70216;SDS011;65567;55.684;37.570;2023-05-07T12:31:01;2.70;;;1.10;;
70216;SDS011;65567;55.684;37.570;2023-05-07T12:33:27;3.35;;;1.17;;
70216;SDS011;65567;55.684;37.570;2023-05-07T12:35:54;2.92;;;1.10;;
70216;SDS011;65567;55.684;37.570;2023-05-07T12:38:21;4.90;;;1.60;;
70216;SDS011;65567;55.684;37.570;2023-05-07T12:40:49;2.15;;;1.17;;
70216;SDS011;65567;55.684;37.570;2023-05-07T12:43:20;3.25;;;1.30;;
70216;SDS011;65567;55.684;37.570;2023-05-07T12:45:48;3.17;;;1.20;;
70216;SDS011;65567;55.684;37.570;2023-05-07T12:48:15;3.28;;;1.40;;
70216;SDS011;65567;55.684;37.570;2023-05-07T12:50:41;3.65;;;1.20;;
70216;SDS011;65567;55.684;37.570;2023-05-07T12:53:10;3.80;;;1.42;;
70216;SDS011;65567;55.684;37.570;2023-05-07T12:55:48;3.70;;;1.70;;
70216;SDS011;65567;55.684;37.570;2023-05-07T12:58:19;5.10;;;1.50;;
70216;SDS011;65567;55.684;37.570;2023-05-07T13:03:29;1.80;;;1.20;;
70216;SDS011;65567;55.684;37.570;2023-05-07T13:06:00;2.90;;;1.33;;
70216;SDS011;65567;55.684;37.570;2023-05-07T13:08:40;5.35;;;1.55;;
70216;SDS011;65567;55.684;37.570;2023-05-07T13:11:10;7.00;;;1.30;;
70216;SDS011;65567;55.684;37.570;2023-05-07T13:13:38;4.70;;;1.33;;
70216;SDS011;65567;55.684;37.570;2023-05-07T13:16:05;2.10;;;1.17;;
70216;SDS011;65567;55.684;37.570;2023-05-07T13:18:33;2.92;;;1.00;;
70216;SDS011;65567;55.684;37.570;2023-05-07T13:20:59;4.10;;;1.48;;
70216;SDS011;65567;55.684;37.570;2023-05-07T13:23:26;3.00;;;1.80;;
70216;SDS011;65567;55.684;37.570;2023-05-07T13:25:53;3.60;;;1.20;;
70216;SDS011;65567;55.684;37.570;2023-05-07T13:28:19;4.63;;;1.90;;
70216;SDS011;65567;55.684;37.570;2023-05-07T13:30:46;3.55;;;1.20;;
70216;SDS011;65567;55.684;37.570;2023-05-07T13:33:12;6.90;;;1.33;;
70216;SDS011;65567;55.684;37.570;2023-05-07T13:35:39;4.05;;;1.60;;
70216;SDS011;65567;55.684;37.570;2023-05-07T13:38:05;3.88;;;1.23;;
70216;SDS011;65567;55.684;37.570;2023-05-07T13:40:31;4.47;;;1.65;;
70216;SDS011;65567;55.684;37.570;2023-05-07T13:42:57;3.22;;;1.45;;
70216;SDS011;65567;55.684;37.570;2023-05-07T13:45:24;16.42;;;10.65;;
70216;SDS011;65567;55.684;37.570;2023-05-07T13:47:51;4.05;;;2.33;;
70216;SDS011;65567;55.684;37.570;2023-05-07T13:50:17;4.25;;;1.10;;
70216;SDS011;65567;55.684;37.570;2023-05-07T13:52:43;1.85;;;1.10;;
70216;SDS011;65567;55.684;37.570;2023-05-07T13:55:19;2.80;;;1.30;;
70216;SDS011;65567;55.684;37.570;2023-05-07T13:57:46;4.72;;;1.60;;
70216;SDS011;65567;55.684;37.570;2023-05-07T14:00:14;2.38;;;1.27;;
70216;SDS011;65567;55.684;37.570;2023-05-07T14:02:46;3.10;;;1.27;;
70216;SDS011;65567;55.684;37.570;2023-05-07T14:05:12;5.43;;;1.88;;
70216;SDS011;65567;55.684;37.570;2023-05-07T14:07:39;2.95;;;1.58;;
70216;SDS011;65567;55.684;37.570;2023-05-07T14:10:05;3.55;;;1.30;;
70216;SDS011;65567;55.684;37.570;2023-05-07T14:12:32;2.40;;;1.45;;
70216;SDS011;65567;55.684;37.570;2023-05-07T14:27:06;3.10;;;1.50;;
70216;SDS011;65567;55.684;37.570;2023-05-07T14:29:32;4.68;;;1.63;;
70216;SDS011;65567;55.684;37.570;2023-05-07T14:31:58;3.45;;;1.27;;
70216;SDS011;65567;55.684;37.570;2023-05-07T14:34:24;4.05;;;1.55;;
70216;SDS011;65567;55.684;37.570;2023-05-07T14:36:50;4.07;;;1.45;;
70216;SDS011;65567;55.684;37.570;2023-05-07T14:39:16;4.40;;;1.45;;
70216;SDS011;65567;55.684;37.570;2023-05-07T14:41:42;3.13;;;1.05;;
70216;SDS011;65567;55.684;37.570;2023-05-07T14:44:08;4.55;;;1.67;;
70216;SDS011;65567;55.684;37.570;2023-05-07T14:46:34;3.95;;;1.30;;
70216;SDS011;65567;55.684;37.570;2023-05-07T14:49:01;2.35;;;1.55;;
70216;SDS011;65567;55.684;37.570;2023-05-07T14:51:27;4.18;;;1.48;;
70216;SDS011;65567;55.684;37.570;2023-05-07T14:53:54;2.80;;;1.40;;
70216;SDS011;65567;55.684;37.570;2023-05-07T14:56:20;3.35;;;1.40;;
70216;SDS011;65567;55.684;37.570;2023-05-07T14:58:47;8.43;;;2.40;;
70216;SDS011;65567;55.684;37.570;2023-05-07T15:01:14;5.63;;;1.20;;
70216;SDS011;65567;55.684;37.570;2023-05-07T15:03:40;4.57;;;1.70;;
70216;SDS011;65567;55.684;37.570;2023-05-07T15:06:06;3.33;;;1.40;;
70216;SDS011;65567;55.684;37.570;2023-05-07T15:08:32;3.33;;;1.33;;
70216;SDS011;65567;55.684;37.570;2023-05-07T15:10:57;2.83;;;1.40;;
70216;SDS011;65567;55.684;37.570;2023-05-07T15:13:23;3.78;;;1.42;;